Flight Track Log - Related Links

Times and Time Zones

All times are in EDT time to prevent confusion due to time zone crossing. See the DAL892 flight status page for this flight to view local times or setup timezone preferences in your user account.

Time Position Orientation Groundspeed Altitude Reporting Facility
EDT Latitude Longitude Course Direction KTS MPH feet Rate Location/Type
Wed 07:32:35 AM 42.2036 -83.3556 218° Southwest 147 169 1,300  Level Cleveland Center
Wed 07:33:11 AM 42.1803 -83.3797 205° Southwest 173 199 2,200 1,343 Climbing Cleveland Center
Wed 07:33:42 AM 42.1611 -83.3917 211° Southwest 222 255 2,800 2,167 Climbing FAA TRACON SMA TRACON (SMA)
Wed 07:34:23 AM 42.1206 -83.4247 196° South 256 295 4,800 3,225 Climbing FAA TRACON SMA TRACON (SMA)
Wed 07:35:02 AM 42.0756 -83.4422 169° South 274 315 7,100 3,225 Climbing FAA TRACON SMA TRACON (SMA)
Wed 07:35:43 AM 42.0219 -83.4281 169° South 293 337 9,100 2,775 Climbing FAA TRACON SMA TRACON (SMA)
Wed 07:36:22 AM 41.9658 -83.4136 170° South 307 353 10,800 2,127 Climbing FAA TRACON SMA TRACON (SMA)
Wed 07:37:02 AM 41.9022 -83.3981 170° South 354 407 11,900 2,175 Climbing FAA TRACON SMA TRACON (SMA)
Wed 07:37:42 AM 41.8372 -83.3819 169° South 368 423 13,700 2,741 Climbing FAA TRACON SMA TRACON (SMA)
Wed 07:38:23 AM 41.7658 -83.3639 189° South 374 430 15,600 2,475 Climbing FAA TRACON SMA TRACON (SMA)
Wed 07:39:02 AM 41.6975 -83.3783 193° South 376 433 17,000 2,203 Climbing FAA TRACON SMA TRACON (SMA)
Wed 07:39:42 AM 41.6306 -83.3986 193° South 383 441 18,500 2,148 Climbing FAA TRACON SMA TRACON (SMA)
Wed 07:40:23 AM 41.5569 -83.4222 194° South 389 448 19,900 1,950 Climbing FAA TRACON SMA TRACON (SMA)
Wed 07:41:02 AM 41.4844 -83.4458 193° South 402 463 21,100 1,823 Climbing FAA TRACON SMA TRACON (SMA)
Wed 07:41:42 AM 41.4119 -83.4678 192° South 409 471 22,300 1,629 Climbing FAA TRACON SMA TRACON (SMA)
Wed 07:42:12 AM 41.3603 -83.4825 194° South 414 476 23,000 1,600 Climbing Cleveland Center
Wed 07:43:12 AM 41.2406 -83.5214 195° South 431 496 24,700 1,509 Climbing Cleveland Center
Wed 07:44:59 AM 41.0178 -83.5983 192° South 463 533 27,200 1,401 Climbing Indianapolis Center
Wed 07:45:59 AM 40.8950 -83.6339 193° South 463 533 28,600 1,250 Climbing Indianapolis Center
Wed 07:46:59 AM 40.7658 -83.6722 195° South 463 533 29,700 1,150 Climbing Indianapolis Center
Wed 07:47:59 AM 40.6553 -83.7103 192° South 469 540 30,900 1,250 Climbing Indianapolis Center
Wed 07:48:59 AM 40.5261 -83.7456 194° South 469 540 32,200 1,200 Climbing Indianapolis Center
Wed 07:49:59 AM 40.4050 -83.7861 193° South 464 534 33,300 1,050 Climbing Indianapolis Center
Wed 07:50:59 AM 40.2758 -83.8264 193° South 464 534 34,300 800 Climbing Indianapolis Center
Wed 07:51:59 AM 40.1486 -83.8639 194° South 470 541 34,900 350 Climbing Indianapolis Center
Wed 07:52:59 AM 40.0214 -83.9039 193° South 470 541 35,000 50 Climbing Indianapolis Center
Wed 07:53:59 AM 39.8939 -83.9411 194° South 470 541 35,000  Level Indianapolis Center
Wed 07:54:59 AM 39.7667 -83.9811 193° South 470 541 35,000  Level Indianapolis Center
Wed 07:55:59 AM 39.6372 -84.0208 185° South 470 541 35,000  Level Indianapolis Center
Wed 07:56:59 AM 39.5081 -84.0361 178° South 475 547 35,000  Level Indianapolis Center
Wed 07:57:59 AM 39.3744 -84.0297 178° South 475 547 35,000  Level Indianapolis Center
Wed 07:58:59 AM 39.2453 -84.0236 179° South 475 547 35,000 -50 Level Indianapolis Center
Wed 07:59:59 AM 39.1139 -84.0200 179° South 475 547 34,900 -50 Descending Indianapolis Center
Wed 08:00:59 AM 38.9742 -84.0164 178° South 468 539 34,900  Level Indianapolis Center
Wed 08:01:59 AM 38.8472 -84.0103 177° South 468 539 34,900 50 Level Indianapolis Center
Wed 08:02:59 AM 38.7178 -84.0014 179° South 463 533 35,000 50 Climbing Indianapolis Center
Wed 08:03:59 AM 38.5947 -83.9981 178° South 451 519 35,000  Level Indianapolis Center
Wed 08:04:59 AM 38.4675 -83.9919 179° South 451 519 35,000  Level Indianapolis Center
Wed 08:05:59 AM 38.3425 -83.9886 179° South 457 526 35,000  Level Indianapolis Center
Wed 08:06:59 AM 38.2214 -83.9853 178° South 457 526 35,000  Level Indianapolis Center
Wed 08:07:59 AM 38.0964 -83.9792 179° South 451 519 35,000  Level Indianapolis Center
Wed 08:08:59 AM 37.9733 -83.9758 178° South 451 519 35,000  Level Indianapolis Center
Wed 08:09:59 AM 37.8483 -83.9700 179° South 446 513 35,000  Level Indianapolis Center
Wed 08:10:59 AM 37.7253 -83.9667 179° South 446 513 35,000  Level Indianapolis Center
Wed 08:11:59 AM 37.6000 -83.9633 178° South 446 513 35,000  Level Indianapolis Center
Wed 08:12:59 AM 37.4769 -83.9575 178° South 446 513 35,000  Level Indianapolis Center
Wed 08:13:59 AM 37.3561 -83.9517 179° South 440 506 35,000  Level Indianapolis Center
Wed 08:14:59 AM 37.2308 -83.9483 179° South 440 506 35,000  Level Indianapolis Center
Wed 08:15:59 AM 37.1097 -83.9450 178° South 440 506 35,000  Level Indianapolis Center
Wed 08:16:59 AM 36.9847 -83.9392 179° South 440 506 35,000  Level Indianapolis Center
Wed 08:17:59 AM 36.8594 -83.9361 178° South 440 506 35,000  Level Indianapolis Center
Wed 08:20:16 AM 36.5775 -83.9250 177° South 443 510 35,000  Level Atlanta Center
Wed 08:21:16 AM 36.4650 -83.9175 176° South 443 510 35,000  Level Atlanta Center
Wed 08:22:16 AM 36.3461 -83.9072 166° South 438 504 35,000  Level Atlanta Center
Wed 08:23:16 AM 36.2231 -83.8689 166° South 444 511 35,000  Level Atlanta Center
Wed 08:24:16 AM 36.0997 -83.8306 166° South 449 517 35,000  Level Atlanta Center
Wed 08:25:16 AM 35.9808 -83.7950 165° South 449 517 35,000  Level Atlanta Center
Wed 08:26:16 AM 35.8578 -83.7544 167° South 449 517 35,000  Level Atlanta Center
Wed 08:27:16 AM 35.7344 -83.7189 167° South 449 517 35,000  Level Atlanta Center
Wed 08:28:16 AM 35.6114 -83.6836 166° South 449 517 35,000  Level Atlanta Center
Wed 08:29:16 AM 35.4881 -83.6458 165° South 449 517 35,000  Level Atlanta Center
Wed 08:30:16 AM 35.3650 -83.6058 168° South 449 517 35,000  Level Atlanta Center
Wed 08:31:16 AM 35.2439 -83.5733 166° South 449 517 35,000  Level Atlanta Center
Wed 08:32:16 AM 35.1081 -83.5311 166° South 449 517 35,000  Level Atlanta Center
Wed 08:33:16 AM 34.9867 -83.4936 166° South 449 517 35,000  Level Atlanta Center
Wed 08:34:16 AM 34.8636 -83.4567 167° South 449 517 35,000  Level Atlanta Center
Wed 08:35:16 AM 34.7444 -83.4219 167° South 454 522 35,000  Level Atlanta Center
Wed 08:36:16 AM 34.6317 -83.3900 165° South 456 525 35,000  Level Atlanta Center
Wed 08:37:16 AM 34.5083 -83.3506 170° South 456 525 35,000  Level Atlanta Center
Wed 08:38:16 AM 34.3828 -83.3239 170° South 451 519 35,000  Level Atlanta Center
Wed 08:39:16 AM 34.2636 -83.2997 170° South 446 513 35,000  Level Atlanta Center
Wed 08:40:16 AM 34.1383 -83.2733 170° South 451 519 35,000  Level Atlanta Center
Wed 08:41:16 AM 34.0025 -83.2444 171° South 451 519 35,000  Level Atlanta Center
Wed 08:42:16 AM 33.8728 -83.2206 170° South 451 519 35,000  Level Atlanta Center
Wed 08:43:16 AM 33.7497 -83.1944 170° South 451 519 35,000  Level Atlanta Center
Wed 08:44:16 AM 33.6242 -83.1681 170° South 456 525 35,000  Level Atlanta Center
Wed 08:45:16 AM 33.5008 -83.1419 172° South 456 525 35,000  Level Atlanta Center
Wed 08:46:16 AM 33.3756 -83.1208 170° South 451 519 35,000  Level Atlanta Center
Wed 08:47:16 AM 33.2522 -83.0950 171° South 451 519 35,000  Level Atlanta Center
Wed 08:48:16 AM 33.1308 -83.0714 170° South 446 513 35,000  Level Atlanta Center
Wed 08:49:16 AM 33.0222 -83.0478 171° South 446 513 35,000  Level Atlanta Center
Wed 08:51:10 AM 32.7761 -82.9989 169° South 443 510 35,000 -103 Level Jacksonville Center
Wed 08:52:10 AM 32.6675 -82.9739 171° South 455 524 34,700 -500 Descending Jacksonville Center
Wed 08:53:10 AM 32.5297 -82.9492 170° South 455 524 34,000 -350 Descending Jacksonville Center
Wed 08:54:10 AM 32.4169 -82.9244 170° South 460 529 34,000  Level Jacksonville Center
Wed 08:55:10 AM 32.2939 -82.9000 171° South 460 529 34,000  Level Jacksonville Center
Wed 08:56:10 AM 32.1686 -82.8753 170° South 460 529 34,000  Level Jacksonville Center
Wed 08:57:10 AM 32.0433 -82.8483 171° South 455 524 34,000  Level Jacksonville Center
Wed 08:58:10 AM 31.9181 -82.8239 171° South 455 524 34,000  Level Jacksonville Center
Wed 08:59:10 AM 31.7950 -82.7997 171° South 455 524 34,000  Level Jacksonville Center
Wed 09:00:10 AM 31.6694 -82.7753 171° South 455 524 34,000  Level Jacksonville Center
Wed 09:01:10 AM 31.5442 -82.7511 170° South 455 524 34,000  Level Jacksonville Center
Wed 09:02:10 AM 31.4169 -82.7244 170° South 460 529 34,000  Level Jacksonville Center
Wed 09:03:10 AM 31.2789 -82.6956 171° South 460 529 34,000  Level Jacksonville Center
Wed 09:04:10 AM 31.1536 -82.6717 171° South 465 535 34,000  Level Jacksonville Center
Wed 09:05:10 AM 31.0408 -82.6500 171° South 465 535 34,000  Level Jacksonville Center
Wed 09:06:10 AM 30.9156 -82.6261 171° South 465 535 34,000 -50 Level Jacksonville Center
Wed 09:07:10 AM 30.7903 -82.6025 170° South 465 535 33,900  Descending Jacksonville Center
Wed 09:08:10 AM 30.6628 -82.5761 170° South 470 541 34,000 50 Climbing Jacksonville Center
Wed 09:09:10 AM 30.5353 -82.5500 170° South 464 534 34,000  Level Jacksonville Center
Wed 09:10:10 AM 30.4122 -82.5242 170° South 464 534 34,000  Level Jacksonville Center
Wed 09:11:10 AM 30.2825 -82.4981 171° South 469 540 34,000 -550 Level Jacksonville Center
Wed 09:12:10 AM 30.1594 -82.4744 171° South 464 534 32,900 -1,250 Descending Jacksonville Center
Wed 09:13:10 AM 30.0339 -82.4511 168° South 464 534 31,500 -1,400 Descending Jacksonville Center
Wed 09:14:10 AM 29.9108 -82.4206 171° South 458 527 30,100 -1,350 Descending Jacksonville Center
Wed 09:15:10 AM 29.7875 -82.3972 170° South 458 527 28,800 -1,300 Descending Jacksonville Center
Wed 09:16:10 AM 29.6642 -82.3717 172° South 458 527 27,500 -1,300 Descending Jacksonville Center
Wed 09:17:10 AM 29.5431 -82.3531 174° South 452 520 26,200 -1,300 Descending Jacksonville Center
Wed 09:18:10 AM 29.4136 -82.3372 174° South 440 506 24,900 -1,550 Descending Jacksonville Center
Wed 09:19:10 AM 29.2986 -82.3233 174° South 427 491 23,100 -2,100 Descending Jacksonville Center
Wed 09:20:10 AM 29.1817 -82.3097 174° South 427 491 20,700 -2,350 Descending Jacksonville Center
Wed 09:21:10 AM 29.0711 -82.2961 175° South 422 486 18,400 -2,200 Descending Jacksonville Center
Wed 09:22:10 AM 28.9644 -82.2850 174° South 412 474 16,300 -2,100 Descending Jacksonville Center
Wed 09:23:10 AM 28.8725 -82.2736 174° South 390 449 14,200 -1,094 Descending Jacksonville Center
Wed 09:25:11 AM 28.6833 -82.2500 180° South 295 339 13,000 -928 Descending Tampa TRACON
Wed 09:26:11 AM 28.6000 -82.2500 180° South 293 337 11,400 -1,667 Descending Tampa TRACON
Wed 09:27:17 AM 28.5167 -82.2500 180° South 288 331 9,500 -1,762 Descending Tampa TRACON
Wed 09:28:17 AM 28.4333 -82.2500 180° South 283 326 7,700 -1,250 Descending Tampa TRACON
Wed 09:29:17 AM 28.3667 -82.2500 221° Southwest 275 316 7,000 -385 Descending Tampa TRACON
Wed 09:30:06 AM 28.3167 -82.3000 249° West 288 331 7,000 -104 Level Tampa TRACON
Wed 09:31:12 AM 28.2833 -82.4000 257° West 297 342 6,800 -1,238 Descending Tampa TRACON
Wed 09:32:12 AM 28.2667 -82.4833 213° Southwest 280 322 4,400 -1,900 Descending Tampa TRACON
Wed 09:33:12 AM 28.2000 -82.5333 180° South 254 292 3,000 -667 Descending Tampa TRACON
Wed 09:34:18 AM 28.1500 -82.5333 180° South 203 234 3,000  Level Tampa TRACON

Login

Don't have an account? Register now (free) for customized features, flight alerts, and more!